createdAt,value
2019-05-14T00:00:48.627Z,2.60
2019-05-14T00:01:51.268Z,2.50
2019-05-14T00:02:48.810Z,2.30
2019-05-14T00:03:48.895Z,2.40
2019-05-14T00:04:51.038Z,2.40
2019-05-14T00:05:51.479Z,2.30
2019-05-14T00:06:49.161Z,2.70
2019-05-14T00:07:51.954Z,2.30
2019-05-14T00:08:49.344Z,2.20
2019-05-14T00:09:51.723Z,2.40
2019-05-14T00:10:51.798Z,2.30
2019-05-14T00:11:51.279Z,2.30
2019-05-14T00:12:51.274Z,2.30
2019-05-14T00:13:51.853Z,2.40
2019-05-14T00:14:51.647Z,2.30
2019-05-14T00:15:51.955Z,2.20
2019-05-14T00:16:51.303Z,2.30
2019-05-14T00:17:52.158Z,2.20
2019-05-14T00:18:51.174Z,2.40
2019-05-14T00:20:05.970Z,2.10
2019-05-14T00:20:51.209Z,2.40
2019-05-14T00:21:51.395Z,2.30
2019-05-14T00:22:52.187Z,2.20
2019-05-14T00:23:51.439Z,2.70
2019-05-14T00:24:52.054Z,2.70
2019-05-14T00:25:52.297Z,2.70
2019-05-14T00:26:51.734Z,2.40
2019-05-14T00:27:51.891Z,2.20
2019-05-14T00:28:51.367Z,2.40
2019-05-14T00:29:51.856Z,2.40
2019-05-14T00:30:52.446Z,2.30
2019-05-14T00:31:51.734Z,2.10
2019-05-14T00:32:52.090Z,2.50
2019-05-14T00:33:51.573Z,2.70
2019-05-14T00:34:51.826Z,2.40
2019-05-14T00:35:51.756Z,2.50
2019-05-14T00:36:52.546Z,2.70
2019-05-14T00:37:52.190Z,2.50
2019-05-14T00:38:52.014Z,2.60
2019-05-14T00:39:52.337Z,2.80
2019-05-14T00:40:52.188Z,3.20
2019-05-14T00:41:52.286Z,2.40
2019-05-14T00:42:53.275Z,2.50
2019-05-14T00:43:52.449Z,2.60
2019-05-14T00:44:57.710Z,3.30
2019-05-14T00:45:52.635Z,2.70
2019-05-14T00:46:52.728Z,2.80
2019-05-14T00:47:52.810Z,2.50
2019-05-14T00:48:52.891Z,2.80
2019-05-14T00:49:52.988Z,2.50
2019-05-14T00:50:53.077Z,2.60
2019-05-14T00:51:53.168Z,2.50
2019-05-14T00:52:53.260Z,2.30
2019-05-14T00:53:53.347Z,2.50
2019-05-14T00:54:53.448Z,2.80
2019-05-14T00:55:53.527Z,2.30
2019-05-14T00:56:53.618Z,2.50
2019-05-14T00:57:53.713Z,2.70
2019-05-14T00:58:53.804Z,2.40
2019-05-14T00:59:53.892Z,2.40
2019-05-14T01:00:53.975Z,2.80
2019-05-14T01:01:54.068Z,2.40
2019-05-14T01:02:54.150Z,2.60
2019-05-14T01:03:54.255Z,2.80
2019-05-14T01:04:54.328Z,2.50
2019-05-14T01:05:54.418Z,2.60
2019-05-14T01:06:54.506Z,2.80
2019-05-14T01:07:54.597Z,2.90
2019-05-14T01:08:54.690Z,2.60
2019-05-14T01:09:54.770Z,2.40
2019-05-14T01:10:54.861Z,2.60
2019-05-14T01:11:54.945Z,2.30
2019-05-14T01:12:55.034Z,2.80
2019-05-14T01:13:55.119Z,2.60
2019-05-14T01:15:06.958Z,2.60
2019-05-14T01:15:55.296Z,2.50
2019-05-14T01:16:55.385Z,2.50
2019-05-14T01:17:55.471Z,2.60
2019-05-14T01:18:55.556Z,2.60
2019-05-14T01:19:55.648Z,2.50
2019-05-14T01:20:55.736Z,2.50
2019-05-14T01:21:55.827Z,2.50
2019-05-14T01:22:55.916Z,2.70
2019-05-14T01:23:56.004Z,2.60
2019-05-14T01:24:56.096Z,2.80
2019-05-14T01:25:56.190Z,3.00
2019-05-14T01:26:56.270Z,2.30
2019-05-14T01:27:56.356Z,2.90
2019-05-14T01:28:56.444Z,2.40
2019-05-14T01:29:56.533Z,2.50
2019-05-14T01:30:56.622Z,2.10
2019-05-14T01:31:56.708Z,2.70
2019-05-14T01:32:56.795Z,2.50
2019-05-14T01:33:56.887Z,2.40
2019-05-14T01:34:56.976Z,2.50
2019-05-14T01:35:57.064Z,2.60
2019-05-14T01:36:57.152Z,2.80
2019-05-14T01:37:57.242Z,2.30
2019-05-14T01:38:57.328Z,2.40
2019-05-14T01:39:57.421Z,2.60
2019-05-14T01:40:57.509Z,2.30
2019-05-14T01:41:57.594Z,2.70
2019-05-14T01:42:57.683Z,2.30
2019-05-14T01:43:57.774Z,3.00
2019-05-14T01:44:57.862Z,2.50
2019-05-14T01:45:57.953Z,2.50
2019-05-14T01:46:58.043Z,2.50
2019-05-14T01:47:58.130Z,2.70
2019-05-14T01:48:58.216Z,3.10
2019-05-14T01:49:58.304Z,2.20
2019-05-14T01:50:58.392Z,2.50
2019-05-14T01:51:58.484Z,2.30
2019-05-14T01:52:58.579Z,2.60
2019-05-14T01:53:58.658Z,2.30
2019-05-14T01:54:58.746Z,2.20
2019-05-14T01:56:01.322Z,2.50
2019-05-14T01:56:58.919Z,2.40
2019-05-14T01:57:59.003Z,2.60
2019-05-14T01:59:01.467Z,2.70
2019-05-14T01:59:59.184Z,2.60
2019-05-14T02:01:01.714Z,3.00
2019-05-14T02:01:59.359Z,2.40
2019-05-14T02:03:01.589Z,2.80
2019-05-14T02:03:59.524Z,2.80
2019-05-14T02:05:01.834Z,3.00
2019-05-14T02:06:01.512Z,2.50
2019-05-14T02:07:01.801Z,3.20
2019-05-14T02:08:01.773Z,2.80
2019-05-14T02:09:01.949Z,3.00
2019-05-14T02:10:01.185Z,2.60
2019-05-14T02:11:01.714Z,2.80
2019-05-14T02:12:02.195Z,2.90
2019-05-14T02:13:02.031Z,2.60
2019-05-14T02:14:02.220Z,2.60
2019-05-14T02:15:01.925Z,2.70
2019-05-14T02:16:01.336Z,2.70
2019-05-14T02:17:01.947Z,2.60
2019-05-14T02:18:02.376Z,2.60
2019-05-14T02:19:01.399Z,2.70
2019-05-14T02:20:02.153Z,2.40
2019-05-14T02:21:01.570Z,2.80
2019-05-14T02:22:02.083Z,2.80
2019-05-14T02:23:01.666Z,2.90
2019-05-14T02:24:02.000Z,2.60
2019-05-14T02:25:02.364Z,2.70
2019-05-14T02:26:02.520Z,2.90
2019-05-14T02:27:02.006Z,2.50
2019-05-14T02:28:01.653Z,2.80
2019-05-14T02:29:02.101Z,2.50
2019-05-14T02:30:02.298Z,2.60
2019-05-14T02:31:03.966Z,2.50
2019-05-14T02:32:02.021Z,2.80
2019-05-14T02:33:02.082Z,2.50
2019-05-14T02:34:02.167Z,2.70
2019-05-14T02:35:02.265Z,2.90
2019-05-14T02:36:02.339Z,2.80
2019-05-14T02:37:02.421Z,2.70
2019-05-14T02:38:02.507Z,2.50
2019-05-14T02:39:02.593Z,2.70
2019-05-14T02:40:02.694Z,2.80
2019-05-14T02:41:02.765Z,2.50
2019-05-14T02:42:02.870Z,2.60
2019-05-14T02:43:02.947Z,2.60
2019-05-14T02:44:03.038Z,2.60
2019-05-14T02:45:03.150Z,2.50
2019-05-14T02:46:11.861Z,2.30
2019-05-14T02:47:03.299Z,2.80
2019-05-14T02:48:03.390Z,3.00
2019-05-14T02:49:03.476Z,2.60
2019-05-14T02:50:03.564Z,2.60
2019-05-14T02:51:03.646Z,2.80
2019-05-14T02:52:03.741Z,2.60
2019-05-14T02:53:03.831Z,2.70
2019-05-14T02:54:03.917Z,2.50
2019-05-14T02:55:04.008Z,2.80
2019-05-14T02:56:04.095Z,2.50
2019-05-14T02:57:04.182Z,2.80
2019-05-14T02:58:04.275Z,2.90
2019-05-14T02:59:05.917Z,3.00
2019-05-14T03:00:04.451Z,3.40
2019-05-14T03:01:04.540Z,4.00
2019-05-14T03:02:04.623Z,3.20
2019-05-14T03:03:04.718Z,3.10
2019-05-14T03:04:04.824Z,3.00
2019-05-14T03:05:04.909Z,2.70
2019-05-14T03:06:04.998Z,2.50
2019-05-14T03:07:05.099Z,2.30
2019-05-14T03:08:05.184Z,2.30
2019-05-14T03:09:05.266Z,2.40
2019-05-14T03:10:05.357Z,2.90
2019-05-14T03:11:05.444Z,2.70
2019-05-14T03:12:05.530Z,2.50
2019-05-14T03:13:05.630Z,2.80
2019-05-14T03:14:08.853Z,2.80
2019-05-14T03:15:09.292Z,2.50
2019-05-14T03:16:22.198Z,2.50
2019-05-14T03:17:05.982Z,2.80
2019-05-14T03:18:09.047Z,2.60
2019-05-14T03:19:06.166Z,2.70
2019-05-14T03:20:08.850Z,2.80
2019-05-14T03:21:09.135Z,3.10
2019-05-14T03:22:09.773Z,2.90
2019-05-14T03:23:09.862Z,2.90
2019-05-14T03:24:09.127Z,2.50
2019-05-14T03:25:09.925Z,2.80
2019-05-14T03:26:09.661Z,3.00
2019-05-14T03:27:09.530Z,2.60
2019-05-14T03:28:09.240Z,2.60
2019-05-14T03:29:09.847Z,2.70
2019-05-14T03:30:12.012Z,2.70
2019-05-14T03:31:12.212Z,2.80
2019-05-14T03:32:13.051Z,2.80
2019-05-14T03:33:12.719Z,2.70
2019-05-14T03:34:12.693Z,2.80
2019-05-14T03:35:13.318Z,3.00
2019-05-14T03:36:16.010Z,2.80
2019-05-14T03:37:13.137Z,2.70
2019-05-14T03:38:09.470Z,2.80
2019-05-14T03:39:10.478Z,2.70
2019-05-14T03:40:09.267Z,3.00
2019-05-14T03:41:09.749Z,2.70
2019-05-14T03:42:09.405Z,3.00
2019-05-14T03:43:09.009Z,2.90
2019-05-14T03:44:09.906Z,2.70
2019-05-14T03:45:08.658Z,2.80
2019-05-14T03:46:09.684Z,2.60
2019-05-14T03:47:10.166Z,2.70
2019-05-14T03:48:10.258Z,2.80
2019-05-14T03:49:09.425Z,2.70
2019-05-14T03:50:10.102Z,3.10
2019-05-14T03:51:09.235Z,2.60
2019-05-14T03:52:09.860Z,2.70
2019-05-14T03:53:10.051Z,2.60
2019-05-14T03:54:12.726Z,2.80
2019-05-14T03:55:09.829Z,2.50
2019-05-14T03:56:10.345Z,2.80
2019-05-14T03:57:09.799Z,2.40
2019-05-14T03:58:09.987Z,2.50
2019-05-14T03:59:09.939Z,2.80
2019-05-14T04:00:10.407Z,2.50
2019-05-14T04:01:09.884Z,2.80
2019-05-14T04:02:10.067Z,2.60
2019-05-14T04:03:10.025Z,2.50
2019-05-14T04:04:10.582Z,2.40
2019-05-14T04:05:10.210Z,2.80
2019-05-14T04:06:10.319Z,2.80
2019-05-14T04:07:10.379Z,2.60
2019-05-14T04:08:10.464Z,2.50
2019-05-14T04:09:10.557Z,2.60
2019-05-14T04:10:10.683Z,2.60
2019-05-14T04:11:10.730Z,2.70
2019-05-14T04:12:10.817Z,2.90
2019-05-14T04:13:10.907Z,3.00
2019-05-14T04:14:10.993Z,2.90
2019-05-14T04:15:11.090Z,3.00
2019-05-14T04:16:11.177Z,2.70
2019-05-14T04:17:15.463Z,3.10
2019-05-14T04:18:11.346Z,3.00
2019-05-14T04:19:11.437Z,2.90
2019-05-14T04:20:11.526Z,2.90
2019-05-14T04:21:11.606Z,3.00
2019-05-14T04:22:11.688Z,3.10
2019-05-14T04:23:11.780Z,3.00
2019-05-14T04:24:11.871Z,2.90
2019-05-14T04:25:11.960Z,2.90
2019-05-14T04:26:12.049Z,2.90
2019-05-14T04:27:13.165Z,2.60
2019-05-14T04:28:12.230Z,2.90
2019-05-14T04:29:12.317Z,2.90
2019-05-14T04:30:12.409Z,2.90
2019-05-14T04:31:12.495Z,2.80
2019-05-14T04:32:12.644Z,3.10
2019-05-14T04:33:12.670Z,3.10
2019-05-14T04:34:12.758Z,3.00
2019-05-14T04:35:12.852Z,3.20
2019-05-14T04:36:12.933Z,2.80
2019-05-14T04:37:13.022Z,3.00
2019-05-14T04:38:13.109Z,3.30
2019-05-14T04:39:13.202Z,3.10
2019-05-14T04:40:13.290Z,3.10
2019-05-14T04:41:13.382Z,3.30
2019-05-14T04:42:13.468Z,3.10
2019-05-14T04:43:13.556Z,3.30
2019-05-14T04:44:13.639Z,3.10
2019-05-14T04:45:13.729Z,3.20
2019-05-14T04:46:13.815Z,3.10
2019-05-14T04:47:28.016Z,3.00
2019-05-14T04:48:31.090Z,3.50
2019-05-14T04:49:14.071Z,3.70
2019-05-14T04:50:14.168Z,4.10
2019-05-14T04:51:14.257Z,3.80
2019-05-14T04:52:14.343Z,3.70
2019-05-14T04:53:14.433Z,3.90
2019-05-14T04:54:14.524Z,3.90
2019-05-14T04:55:14.610Z,3.10
2019-05-14T04:56:14.693Z,3.40
2019-05-14T04:57:14.777Z,3.70
2019-05-14T04:58:14.876Z,3.20
2019-05-14T04:59:14.967Z,3.00
2019-05-14T05:00:15.053Z,3.10
2019-05-14T05:01:15.164Z,3.20
2019-05-14T05:02:15.244Z,3.00
2019-05-14T05:03:15.339Z,3.00
2019-05-14T05:04:15.423Z,2.80
2019-05-14T05:05:15.513Z,3.00
2019-05-14T05:06:15.600Z,2.90
2019-05-14T05:07:18.934Z,3.00
2019-05-14T05:08:15.781Z,2.90
2019-05-14T05:09:15.869Z,3.30
2019-05-14T05:10:19.033Z,3.00
2019-05-14T05:11:17.332Z,2.80
2019-05-14T05:12:19.447Z,3.30
2019-05-14T05:13:18.463Z,3.10
2019-05-14T05:14:18.967Z,3.20
2019-05-14T05:15:16.399Z,3.10
2019-05-14T05:16:18.985Z,3.30
2019-05-14T05:17:19.364Z,3.40
2019-05-14T05:18:18.663Z,3.40
2019-05-14T05:19:19.440Z,3.40
2019-05-14T05:20:19.308Z,2.90
2019-05-14T05:21:18.990Z,4.70
2019-05-14T05:22:19.422Z,3.90
2019-05-14T05:23:18.935Z,3.70
2019-05-14T05:24:18.389Z,3.80
2019-05-14T05:25:18.910Z,3.50
2019-05-14T05:26:18.427Z,3.70
2019-05-14T05:27:18.457Z,3.40
2019-05-14T05:28:19.055Z,3.70
2019-05-14T05:29:18.602Z,4.40
2019-05-14T05:30:19.001Z,3.90
2019-05-14T05:31:18.500Z,4.10
2019-05-14T05:32:19.391Z,4.00
2019-05-14T05:33:18.747Z,3.50
2019-05-14T05:34:19.277Z,3.80
2019-05-14T05:35:18.700Z,4.20
2019-05-14T05:36:18.581Z,3.70
2019-05-14T05:37:19.086Z,4.00
2019-05-14T05:38:18.512Z,3.60
2019-05-14T05:39:19.032Z,3.40
2019-05-14T05:40:19.684Z,3.20
2019-05-14T05:41:19.281Z,3.30
2019-05-14T05:42:19.069Z,3.30
2019-05-14T05:43:19.222Z,3.60
2019-05-14T05:44:19.069Z,3.00
2019-05-14T05:45:19.166Z,3.30
2019-05-14T05:46:19.477Z,3.30
2019-05-14T05:47:19.337Z,3.10
2019-05-14T05:48:19.438Z,3.30
2019-05-14T05:49:19.593Z,2.90
2019-05-14T05:50:19.562Z,3.00
2019-05-14T05:51:19.657Z,3.50
2019-05-14T05:52:19.739Z,3.20
2019-05-14T05:53:19.835Z,2.80
2019-05-14T05:54:19.925Z,3.10
2019-05-14T05:55:20.027Z,3.10
2019-05-14T05:56:20.119Z,2.90
2019-05-14T05:57:20.214Z,2.80
2019-05-14T05:58:20.315Z,2.70
2019-05-14T05:59:20.415Z,2.70
2019-05-14T06:00:20.493Z,2.80
2019-05-14T06:01:20.588Z,2.80
2019-05-14T06:02:20.683Z,2.90
2019-05-14T06:03:21.160Z,2.80
2019-05-14T06:04:20.867Z,2.90
2019-05-14T06:05:20.982Z,3.00
2019-05-14T06:06:21.055Z,2.90
2019-05-14T06:07:21.156Z,2.70
2019-05-14T06:08:21.259Z,3.20
2019-05-14T06:09:21.354Z,3.00
2019-05-14T06:10:21.449Z,3.30
2019-05-14T06:11:21.542Z,3.60
2019-05-14T06:12:21.640Z,3.40
2019-05-14T06:13:21.745Z,3.30
2019-05-14T06:14:21.850Z,3.40
2019-05-14T06:15:21.935Z,3.50
2019-05-14T06:16:22.036Z,3.40
2019-05-14T06:17:22.140Z,3.10
2019-05-14T06:18:22.367Z,3.20
2019-05-14T06:19:22.341Z,3.10
2019-05-14T06:20:22.439Z,3.20
2019-05-14T06:21:22.537Z,3.20
2019-05-14T06:22:22.633Z,3.20
2019-05-14T06:23:22.736Z,3.60
2019-05-14T06:24:22.818Z,3.20
2019-05-14T06:25:22.917Z,3.30
2019-05-14T06:26:23.037Z,3.50
2019-05-14T06:27:23.130Z,3.30
2019-05-14T06:28:23.233Z,3.40
2019-05-14T06:29:23.342Z,3.50
2019-05-14T06:30:23.447Z,3.10
2019-05-14T06:31:23.559Z,3.70
2019-05-14T06:32:23.698Z,3.10
2019-05-14T06:33:23.786Z,3.40
2019-05-14T06:34:23.887Z,3.20
2019-05-14T06:35:23.985Z,3.20
2019-05-14T06:36:24.083Z,3.20
2019-05-14T06:37:24.183Z,3.00
2019-05-14T06:38:24.270Z,3.30
2019-05-14T06:39:24.376Z,3.40
2019-05-14T06:40:24.476Z,3.40
2019-05-14T06:41:24.590Z,3.60
2019-05-14T06:42:24.665Z,3.50
2019-05-14T06:43:24.777Z,3.40
2019-05-14T06:44:24.875Z,3.20
2019-05-14T06:45:24.973Z,3.80
2019-05-14T06:46:25.069Z,3.50
2019-05-14T06:47:25.167Z,3.40
2019-05-14T06:48:30.282Z,3.40
2019-05-14T06:49:25.360Z,3.60
2019-05-14T06:50:28.325Z,3.60
2019-05-14T06:51:25.552Z,3.20
2019-05-14T06:52:25.664Z,3.60
2019-05-14T06:53:28.757Z,3.10
2019-05-14T06:54:25.871Z,3.40
2019-05-14T06:55:28.313Z,3.30
2019-05-14T06:56:28.134Z,3.00
2019-05-14T06:57:28.385Z,3.30
2019-05-14T06:58:26.260Z,3.50
2019-05-14T06:59:28.584Z,3.30
2019-05-14T07:00:28.572Z,3.30
2019-05-14T07:01:28.965Z,3.40
2019-05-14T07:02:28.500Z,3.50
2019-05-14T07:03:28.178Z,3.40
2019-05-14T07:04:28.850Z,3.70
2019-05-14T07:05:28.159Z,3.30
2019-05-14T07:06:29.022Z,3.60
2019-05-14T07:07:29.721Z,3.80
2019-05-14T07:08:28.486Z,3.20
2019-05-14T07:09:28.969Z,3.50
2019-05-14T07:10:28.669Z,3.50
2019-05-14T07:11:29.218Z,3.70
2019-05-14T07:12:29.375Z,3.30
2019-05-14T07:13:29.172Z,3.30
2019-05-14T07:14:28.299Z,3.40
2019-05-14T07:15:29.049Z,3.30
2019-05-14T07:16:28.704Z,3.30
2019-05-14T07:17:28.737Z,3.80
2019-05-14T07:18:33.283Z,3.60
2019-05-14T07:19:29.428Z,3.50
2019-05-14T07:20:28.399Z,3.30
2019-05-14T07:21:29.150Z,3.60
2019-05-14T07:22:28.557Z,3.60
2019-05-14T07:23:29.090Z,3.30
2019-05-14T07:24:28.738Z,3.30
2019-05-14T07:25:28.843Z,3.30
2019-05-14T07:26:29.536Z,3.40
2019-05-14T07:27:29.040Z,2.90
2019-05-14T07:28:29.165Z,3.30
2019-05-14T07:29:29.507Z,3.10
2019-05-14T07:30:29.370Z,3.30
2019-05-14T07:31:29.478Z,3.30
2019-05-14T07:32:29.588Z,3.60
2019-05-14T07:33:29.696Z,3.40
2019-05-14T07:34:29.792Z,3.60
2019-05-14T07:35:29.890Z,3.50
2019-05-14T07:36:29.979Z,3.40
2019-05-14T07:37:30.078Z,3.20
2019-05-14T07:38:30.176Z,3.40
2019-05-14T07:39:30.285Z,3.60
2019-05-14T07:40:30.365Z,3.70
2019-05-14T07:41:30.463Z,3.30
2019-05-14T07:42:30.569Z,3.60
2019-05-14T07:43:30.666Z,3.60
2019-05-14T07:44:30.756Z,3.30
2019-05-14T07:45:33.300Z,3.50
2019-05-14T07:46:30.942Z,3.30
2019-05-14T07:47:31.034Z,3.50
2019-05-14T07:48:31.133Z,3.10
2019-05-14T07:49:31.241Z,3.10
2019-05-14T07:50:31.356Z,3.50
2019-05-14T07:51:31.445Z,3.30
2019-05-14T07:52:31.547Z,3.30
2019-05-14T07:53:38.504Z,3.10
2019-05-14T07:54:31.723Z,3.60
2019-05-14T07:55:31.826Z,3.30
2019-05-14T07:56:31.934Z,3.00
2019-05-14T07:57:32.010Z,2.90
2019-05-14T07:58:32.120Z,2.90
2019-05-14T07:59:32.213Z,3.10
2019-05-14T08:00:32.320Z,3.10
2019-05-14T08:01:32.432Z,3.50
2019-05-14T08:02:32.542Z,3.10
2019-05-14T08:03:32.647Z,3.00
2019-05-14T08:04:32.742Z,3.30
2019-05-14T08:05:32.837Z,3.10
2019-05-14T08:06:32.921Z,3.10
2019-05-14T08:07:33.035Z,3.60
2019-05-14T08:08:33.101Z,3.40
2019-05-14T08:09:33.200Z,2.80
2019-05-14T08:10:33.310Z,3.20
2019-05-14T08:11:33.411Z,3.00
2019-05-14T08:12:33.509Z,2.60
2019-05-14T08:13:33.600Z,2.50
2019-05-14T08:14:42.194Z,2.50
2019-05-14T08:15:33.809Z,2.50
2019-05-14T08:16:33.901Z,2.40
2019-05-14T08:17:34.009Z,2.40
2019-05-14T08:18:34.093Z,2.90
2019-05-14T08:19:34.621Z,2.50
2019-05-14T08:20:34.278Z,2.40
2019-05-14T08:21:34.372Z,2.30
2019-05-14T08:22:34.475Z,2.50
2019-05-14T08:23:34.577Z,2.40
2019-05-14T08:24:34.664Z,2.80
2019-05-14T08:25:34.756Z,2.50
2019-05-14T08:26:34.861Z,2.90
2019-05-14T08:27:34.962Z,2.50
2019-05-14T08:28:35.058Z,2.60
2019-05-14T08:29:39.128Z,2.40
2019-05-14T08:30:35.242Z,2.40
2019-05-14T08:31:35.339Z,2.60
2019-05-14T08:32:35.433Z,2.40
2019-05-14T08:33:35.529Z,2.50
2019-05-14T08:34:35.621Z,2.80
2019-05-14T08:35:35.718Z,2.40
2019-05-14T08:36:37.794Z,2.50
2019-05-14T08:37:35.908Z,2.30
2019-05-14T08:38:38.072Z,2.20
2019-05-14T08:39:36.112Z,2.30
2019-05-14T08:40:37.720Z,2.20
2019-05-14T08:41:38.352Z,2.50
2019-05-14T08:42:37.899Z,2.30
2019-05-14T08:43:36.470Z,2.30
2019-05-14T08:44:38.763Z,2.50
2019-05-14T08:45:38.785Z,2.50
2019-05-14T08:46:38.692Z,2.30
2019-05-14T08:47:38.607Z,2.20
2019-05-14T08:48:38.949Z,2.20
2019-05-14T08:49:45.492Z,2.70
2019-05-14T08:50:38.735Z,2.20
2019-05-14T08:51:38.806Z,2.80
2019-05-14T08:52:39.311Z,2.40
2019-05-14T08:53:38.505Z,2.60
2019-05-14T08:54:39.091Z,2.50
2019-05-14T08:55:38.140Z,2.30
2019-05-14T08:56:38.921Z,2.10
2019-05-14T08:57:38.712Z,2.50
2019-05-14T08:58:38.472Z,2.50
2019-05-14T08:59:39.589Z,2.30
2019-05-14T09:00:38.772Z,2.50
2019-05-14T09:01:38.762Z,2.50
2019-05-14T09:02:39.301Z,2.50
2019-05-14T09:03:39.188Z,2.40
2019-05-14T09:04:43.045Z,2.30
2019-05-14T09:05:38.750Z,2.10
2019-05-14T09:06:38.681Z,2.20
2019-05-14T09:07:38.752Z,2.00
2019-05-14T09:08:39.290Z,1.90
2019-05-14T09:09:38.943Z,2.20
2019-05-14T09:10:40.190Z,2.00
2019-05-14T09:11:45.007Z,2.20
2019-05-14T09:12:39.235Z,2.30
2019-05-14T09:13:39.332Z,2.10
2019-05-14T09:14:39.426Z,2.30
2019-05-14T09:15:39.523Z,2.20
2019-05-14T09:16:46.903Z,2.00
2019-05-14T09:17:39.719Z,2.00
2019-05-14T09:18:39.807Z,2.00
2019-05-14T09:19:57.183Z,2.00
2019-05-14T09:20:39.996Z,2.00
2019-05-14T09:21:40.097Z,1.90
2019-05-14T09:22:40.187Z,2.00
2019-05-14T09:23:40.279Z,2.40
2019-05-14T09:24:40.371Z,2.10
2019-05-14T09:25:47.021Z,2.20
2019-05-14T09:26:40.574Z,2.30
2019-05-14T09:27:40.670Z,2.00
2019-05-14T09:28:40.761Z,2.30
2019-05-14T09:29:40.859Z,2.10
2019-05-14T09:30:40.952Z,1.70
2019-05-14T09:31:41.055Z,2.00
2019-05-14T09:32:41.140Z,1.90
2019-05-14T09:33:41.246Z,2.10
2019-05-14T09:34:41.346Z,2.10
2019-05-14T09:35:41.436Z,2.10
2019-05-14T09:36:41.531Z,1.90
2019-05-14T09:37:41.626Z,1.80
2019-05-14T09:38:42.654Z,1.80
2019-05-14T09:39:41.874Z,1.90
2019-05-14T09:40:41.928Z,1.80
2019-05-14T09:41:42.029Z,2.00
2019-05-14T09:42:42.128Z,1.90
2019-05-14T09:43:42.220Z,1.70
2019-05-14T09:44:42.313Z,1.80
2019-05-14T09:45:42.412Z,2.10
2019-05-14T09:46:42.503Z,1.80
2019-05-14T09:47:42.600Z,1.80
2019-05-14T09:48:42.692Z,1.70
2019-05-14T09:49:42.801Z,1.70
2019-05-14T09:50:42.889Z,1.60
2019-05-14T09:51:43.005Z,1.90
2019-05-14T09:52:43.081Z,1.80
2019-05-14T09:53:43.179Z,1.70
2019-05-14T09:54:44.101Z,1.70
2019-05-14T09:55:43.370Z,2.20
2019-05-14T09:56:43.467Z,1.60
2019-05-14T09:57:43.569Z,1.60
2019-05-14T09:58:43.661Z,1.70
2019-05-14T09:59:43.747Z,1.70
2019-05-14T10:00:43.850Z,1.40
2019-05-14T10:01:43.949Z,1.70
2019-05-14T10:02:44.044Z,1.50
2019-05-14T10:03:44.136Z,1.40
2019-05-14T10:04:44.233Z,1.60
2019-05-14T10:05:44.329Z,2.00
2019-05-14T10:06:44.436Z,1.90
2019-05-14T10:07:44.516Z,1.60
2019-05-14T10:08:44.608Z,1.30
2019-05-14T10:09:44.715Z,1.50
2019-05-14T10:10:44.811Z,1.40
2019-05-14T10:11:44.906Z,1.30
2019-05-14T10:12:54.049Z,1.60
2019-05-14T10:13:45.093Z,1.60
2019-05-14T10:14:45.212Z,1.50
2019-05-14T10:15:45.297Z,1.40
2019-05-14T10:16:45.389Z,1.80
2019-05-14T10:17:45.481Z,1.50
2019-05-14T10:18:45.584Z,1.60
2019-05-14T10:19:45.667Z,1.40
2019-05-14T10:20:49.032Z,1.50
2019-05-14T10:21:45.868Z,1.60
2019-05-14T10:22:48.115Z,1.50
2019-05-14T10:23:46.051Z,1.30
2019-05-14T10:24:46.152Z,1.40
2019-05-14T10:25:46.250Z,1.40
2019-05-14T10:26:48.269Z,1.40
2019-05-14T10:27:48.576Z,1.30
2019-05-14T10:28:48.461Z,1.40
2019-05-14T10:29:48.262Z,1.20
2019-05-14T10:30:48.954Z,1.30
2019-05-14T10:31:48.556Z,1.40
2019-05-14T10:32:49.284Z,1.20
2019-05-14T10:33:48.515Z,1.20
2019-05-14T10:34:48.539Z,1.30
2019-05-14T10:35:48.511Z,1.40
2019-05-14T10:36:47.353Z,1.30
2019-05-14T10:37:47.463Z,1.40
2019-05-14T10:38:47.558Z,1.30
2019-05-14T10:39:47.659Z,1.50
2019-05-14T10:40:47.751Z,1.30
2019-05-14T10:41:47.841Z,1.40
2019-05-14T10:42:49.487Z,1.40
2019-05-14T10:43:49.630Z,1.20
2019-05-14T10:44:48.128Z,1.20
2019-05-14T10:45:49.426Z,1.50
2019-05-14T10:46:48.337Z,1.30
2019-05-14T10:47:49.441Z,1.30
2019-05-14T10:48:48.562Z,1.30
2019-05-14T10:49:48.674Z,1.20
2019-05-14T10:50:59.124Z,1.30
2019-05-14T10:51:48.882Z,1.10
2019-05-14T10:52:49.098Z,1.40
2019-05-14T10:53:49.291Z,1.20
2019-05-14T10:54:55.801Z,1.40
2019-05-14T10:55:49.265Z,1.40
2019-05-14T10:56:49.612Z,1.40
2019-05-14T10:57:54.182Z,1.20
2019-05-14T10:58:49.557Z,1.40
2019-05-14T10:59:49.665Z,1.40
2019-05-14T11:00:49.756Z,1.30
2019-05-14T11:01:49.861Z,1.20
2019-05-14T11:02:49.938Z,1.40
2019-05-14T11:03:50.037Z,1.30
2019-05-14T11:04:50.111Z,1.10
2019-05-14T11:05:50.212Z,1.30
2019-05-14T11:06:50.307Z,1.10
2019-05-14T11:07:50.399Z,1.20
2019-05-14T11:08:50.497Z,1.20
2019-05-14T11:09:50.594Z,1.20
2019-05-14T11:10:50.684Z,1.40
2019-05-14T11:11:50.768Z,1.30
2019-05-14T11:12:54.560Z,1.20
2019-05-14T11:13:50.989Z,1.50
2019-05-14T11:14:51.065Z,1.40
2019-05-14T11:15:51.164Z,1.30
2019-05-14T11:16:51.261Z,1.50
2019-05-14T11:17:51.356Z,1.30
2019-05-14T11:18:51.451Z,1.40
2019-05-14T11:19:51.559Z,1.50
2019-05-14T11:20:51.872Z,1.30
2019-05-14T11:21:51.740Z,1.50
2019-05-14T11:22:51.857Z,1.30
2019-05-14T11:23:51.936Z,1.20
2019-05-14T11:24:52.040Z,2.30
2019-05-14T11:25:52.136Z,1.50
2019-05-14T11:26:52.235Z,1.40
2019-05-14T11:27:52.327Z,1.10
2019-05-14T11:28:52.430Z,1.70
2019-05-14T11:29:52.527Z,1.20
2019-05-14T11:30:52.623Z,1.30
2019-05-14T11:31:52.719Z,1.30
2019-05-14T11:32:52.813Z,1.40
2019-05-14T11:33:52.907Z,1.40
2019-05-14T11:34:53.007Z,1.20
2019-05-14T11:35:53.104Z,1.20
2019-05-14T11:36:53.200Z,1.50
2019-05-14T11:37:53.294Z,1.20
2019-05-14T11:38:53.388Z,1.20
2019-05-14T11:39:53.483Z,1.30
2019-05-14T11:40:53.594Z,1.30
2019-05-14T11:41:53.692Z,1.50
2019-05-14T11:42:53.781Z,1.30
2019-05-14T11:43:53.883Z,1.10
2019-05-14T11:44:53.969Z,1.20
2019-05-14T11:45:54.062Z,1.10
2019-05-14T11:46:57.869Z,1.10
2019-05-14T11:47:54.256Z,1.30
2019-05-14T11:48:54.372Z,1.20
2019-05-14T11:49:54.467Z,1.00
2019-05-14T11:50:54.564Z,1.30
2019-05-14T11:52:04.277Z,1.10
2019-05-14T11:52:54.757Z,1.20
2019-05-14T11:53:54.858Z,1.20
2019-05-14T11:54:55.013Z,1.20
2019-05-14T11:55:55.102Z,1.20
2019-05-14T11:56:55.186Z,1.30
2019-05-14T11:57:55.287Z,1.20
2019-05-14T11:58:55.373Z,1.00
2019-05-14T11:59:57.989Z,1.10
2019-05-14T12:00:58.300Z,1.50
2019-05-14T12:01:55.661Z,1.30
2019-05-14T12:02:58.429Z,1.20
2019-05-14T12:03:55.851Z,1.20
2019-05-14T12:04:55.946Z,1.00
2019-05-14T12:05:58.448Z,1.30
2019-05-14T12:06:58.891Z,1.10
2019-05-14T12:07:56.230Z,1.00
2019-05-14T12:08:58.126Z,1.20
2019-05-14T12:09:56.430Z,1.30
2019-05-14T12:10:59.040Z,1.70
2019-05-14T12:11:58.764Z,1.20
2019-05-14T12:12:58.467Z,1.10
2019-05-14T12:13:59.613Z,1.10
2019-05-14T12:14:58.216Z,1.20
2019-05-14T12:15:59.046Z,1.10
2019-05-14T12:16:59.740Z,0.90
2019-05-14T12:17:59.606Z,1.20
2019-05-14T12:18:59.002Z,1.10
2019-05-14T12:19:59.379Z,1.10
2019-05-14T12:20:59.332Z,1.00
2019-05-14T12:22:06.750Z,1.30
2019-05-14T12:22:59.260Z,1.00
2019-05-14T12:24:04.602Z,1.20
2019-05-14T12:24:58.425Z,1.20
2019-05-14T12:25:58.740Z,1.10
2019-05-14T12:26:58.593Z,1.20
2019-05-14T12:27:58.960Z,1.10
2019-05-14T12:28:59.421Z,1.10
2019-05-14T12:29:59.898Z,1.20
2019-05-14T12:30:58.525Z,1.20
2019-05-14T12:31:58.720Z,1.20
2019-05-14T12:32:59.160Z,1.20
2019-05-14T12:33:58.747Z,1.20
2019-05-14T12:34:59.387Z,1.20
2019-05-14T12:36:00.515Z,1.20
2019-05-14T12:36:59.029Z,1.10
2019-05-14T12:37:59.134Z,1.40
2019-05-14T12:38:59.347Z,1.10
2019-05-14T12:39:59.312Z,0.90
2019-05-14T12:40:59.416Z,1.00
2019-05-14T12:41:59.503Z,1.20
2019-05-14T12:42:59.619Z,1.10
2019-05-14T12:43:59.694Z,1.10
2019-05-14T12:44:59.791Z,1.00
2019-05-14T12:45:59.885Z,1.10
2019-05-14T12:46:59.982Z,1.10
2019-05-14T12:48:00.077Z,1.20
2019-05-14T12:49:00.171Z,1.10
2019-05-14T12:50:00.272Z,1.10
2019-05-14T12:51:00.364Z,1.20
2019-05-14T12:52:16.395Z,1.10
2019-05-14T12:53:00.556Z,1.10
2019-05-14T12:54:00.651Z,1.30
2019-05-14T12:55:00.873Z,1.10
2019-05-14T12:56:00.880Z,1.10
2019-05-14T12:57:00.994Z,1.10
2019-05-14T12:58:01.072Z,1.00
2019-05-14T12:59:01.169Z,1.10
2019-05-14T13:00:01.264Z,1.10
2019-05-14T13:01:01.362Z,1.10
2019-05-14T13:02:01.459Z,1.10
2019-05-14T13:03:01.557Z,1.20
2019-05-14T13:04:01.660Z,1.10
2019-05-14T13:05:01.837Z,1.20
2019-05-14T13:06:01.864Z,1.20
2019-05-14T13:07:01.967Z,1.10
2019-05-14T13:08:02.047Z,1.30
2019-05-14T13:09:02.153Z,0.90
2019-05-14T13:10:02.254Z,1.10
2019-05-14T13:11:02.348Z,1.30
2019-05-14T13:12:02.444Z,1.40
2019-05-14T13:13:02.541Z,1.30
2019-05-14T13:14:02.634Z,1.00
2019-05-14T13:15:02.733Z,1.10
2019-05-14T13:16:04.494Z,1.00
2019-05-14T13:17:02.917Z,1.40
2019-05-14T13:18:03.015Z,1.20
2019-05-14T13:19:03.125Z,1.10
2019-05-14T13:20:03.271Z,1.20